sensor_id;sensor_type;location;lat;lon;timestamp;temperature;humidity
59975;DHT22;62136;-35.664;-63.766;2023-11-21T00:00:22;28.00;36.00
59975;DHT22;62136;-35.664;-63.766;2023-11-21T00:02:49;28.00;36.00
59975;DHT22;62136;-35.664;-63.766;2023-11-21T00:05:16;27.90;36.00
59975;DHT22;62136;-35.664;-63.766;2023-11-21T00:07:44;27.90;36.10
59975;DHT22;62136;-35.664;-63.766;2023-11-21T00:10:12;27.90;36.00
59975;DHT22;62136;-35.664;-63.766;2023-11-21T00:12:40;27.90;36.00
59975;DHT22;62136;-35.664;-63.766;2023-11-21T00:15:09;27.90;36.10
59975;DHT22;62136;-35.664;-63.766;2023-11-21T00:17:39;27.90;36.10
59975;DHT22;62136;-35.664;-63.766;2023-11-21T00:20:07;27.80;36.20
59975;DHT22;62136;-35.664;-63.766;2023-11-21T00:22:54;27.80;36.20
59975;DHT22;62136;-35.664;-63.766;2023-11-21T00:25:21;27.80;36.20
59975;DHT22;62136;-35.664;-63.766;2023-11-21T00:27:48;27.70;36.20
59975;DHT22;62136;-35.664;-63.766;2023-11-21T00:30:15;27.70;36.20
59975;DHT22;62136;-35.664;-63.766;2023-11-21T00:32:42;27.70;36.30
59975;DHT22;62136;-35.664;-63.766;2023-11-21T00:35:09;27.70;36.40
59975;DHT22;62136;-35.664;-63.766;2023-11-21T00:37:36;27.70;36.30
59975;DHT22;62136;-35.664;-63.766;2023-11-21T00:40:05;27.70;36.30
59975;DHT22;62136;-35.664;-63.766;2023-11-21T00:42:33;27.70;36.30
59975;DHT22;62136;-35.664;-63.766;2023-11-21T00:45:00;27.60;36.30
59975;DHT22;62136;-35.664;-63.766;2023-11-21T00:47:27;27.70;36.30
59975;DHT22;62136;-35.664;-63.766;2023-11-21T00:49:54;27.60;36.30
59975;DHT22;62136;-35.664;-63.766;2023-11-21T00:52:21;27.60;36.30
59975;DHT22;62136;-35.664;-63.766;2023-11-21T00:54:48;27.60;36.30
59975;DHT22;62136;-35.664;-63.766;2023-11-21T00:57:15;27.60;36.30
59975;DHT22;62136;-35.664;-63.766;2023-11-21T00:59:42;27.50;36.30
59975;DHT22;62136;-35.664;-63.766;2023-11-21T01:02:09;27.60;36.30
59975;DHT22;62136;-35.664;-63.766;2023-11-21T01:04:37;27.50;36.30
59975;DHT22;62136;-35.664;-63.766;2023-11-21T01:07:04;27.50;36.50
59975;DHT22;62136;-35.664;-63.766;2023-11-21T01:09:31;27.50;36.40
59975;DHT22;62136;-35.664;-63.766;2023-11-21T01:11:59;27.50;36.40
59975;DHT22;62136;-35.664;-63.766;2023-11-21T01:14:26;27.40;36.30
59975;DHT22;62136;-35.664;-63.766;2023-11-21T01:16:53;27.40;36.40
59975;DHT22;62136;-35.664;-63.766;2023-11-21T01:19:20;27.40;36.40
59975;DHT22;62136;-35.664;-63.766;2023-11-21T01:21:47;27.40;36.40
59975;DHT22;62136;-35.664;-63.766;2023-11-21T01:24:14;27.40;36.40
59975;DHT22;62136;-35.664;-63.766;2023-11-21T01:26:41;27.40;36.40
59975;DHT22;62136;-35.664;-63.766;2023-11-21T01:29:08;27.40;36.40
59975;DHT22;62136;-35.664;-63.766;2023-11-21T01:31:35;27.40;36.50
59975;DHT22;62136;-35.664;-63.766;2023-11-21T01:34:02;27.40;36.50
59975;DHT22;62136;-35.664;-63.766;2023-11-21T01:36:34;27.30;36.40
59975;DHT22;62136;-35.664;-63.766;2023-11-21T01:39:01;27.30;36.40
59975;DHT22;62136;-35.664;-63.766;2023-11-21T01:41:34;27.30;36.50
59975;DHT22;62136;-35.664;-63.766;2023-11-21T01:44:01;27.30;36.50
59975;DHT22;62136;-35.664;-63.766;2023-11-21T01:46:28;27.30;36.60
59975;DHT22;62136;-35.664;-63.766;2023-11-21T01:48:55;27.20;36.40
59975;DHT22;62136;-35.664;-63.766;2023-11-21T01:51:22;27.20;36.40
59975;DHT22;62136;-35.664;-63.766;2023-11-21T01:53:50;27.20;36.40
59975;DHT22;62136;-35.664;-63.766;2023-11-21T01:56:17;27.20;36.50
59975;DHT22;62136;-35.664;-63.766;2023-11-21T01:58:44;27.20;36.50
59975;DHT22;62136;-35.664;-63.766;2023-11-21T02:01:13;27.20;36.60
59975;DHT22;62136;-35.664;-63.766;2023-11-21T02:03:40;27.10;36.60
59975;DHT22;62136;-35.664;-63.766;2023-11-21T02:06:08;27.10;36.60
59975;DHT22;62136;-35.664;-63.766;2023-11-21T02:08:35;27.10;36.60
59975;DHT22;62136;-35.664;-63.766;2023-11-21T02:11:04;27.10;36.60
59975;DHT22;62136;-35.664;-63.766;2023-11-21T02:13:31;27.10;36.60
59975;DHT22;62136;-35.664;-63.766;2023-11-21T02:15:59;27.10;36.70
59975;DHT22;62136;-35.664;-63.766;2023-11-21T02:18:26;27.10;36.60
59975;DHT22;62136;-35.664;-63.766;2023-11-21T02:20:56;27.10;36.60
59975;DHT22;62136;-35.664;-63.766;2023-11-21T02:23:23;27.10;36.50
59975;DHT22;62136;-35.664;-63.766;2023-11-21T02:25:55;27.00;36.60
59975;DHT22;62136;-35.664;-63.766;2023-11-21T02:28:22;27.10;36.60
59975;DHT22;62136;-35.664;-63.766;2023-11-21T02:30:59;27.10;36.50
59975;DHT22;62136;-35.664;-63.766;2023-11-21T02:33:26;27.00;36.70
59975;DHT22;62136;-35.664;-63.766;2023-11-21T02:35:53;27.00;36.60
59975;DHT22;62136;-35.664;-63.766;2023-11-21T02:38:21;27.00;36.60
59975;DHT22;62136;-35.664;-63.766;2023-11-21T02:40:48;27.00;36.60
59975;DHT22;62136;-35.664;-63.766;2023-11-21T02:43:15;26.90;36.70
59975;DHT22;62136;-35.664;-63.766;2023-11-21T02:45:42;26.90;36.60
59975;DHT22;62136;-35.664;-63.766;2023-11-21T02:48:10;26.90;36.70
59975;DHT22;62136;-35.664;-63.766;2023-11-21T02:50:37;26.90;36.70
59975;DHT22;62136;-35.664;-63.766;2023-11-21T02:53:04;26.90;36.70
59975;DHT22;62136;-35.664;-63.766;2023-11-21T02:55:32;26.90;36.70
59975;DHT22;62136;-35.664;-63.766;2023-11-21T02:58:02;26.90;36.60
59975;DHT22;62136;-35.664;-63.766;2023-11-21T03:00:30;26.90;36.60
59975;DHT22;62136;-35.664;-63.766;2023-11-21T03:02:57;26.80;36.70
59975;DHT22;62136;-35.664;-63.766;2023-11-21T03:05:24;26.80;36.60
59975;DHT22;62136;-35.664;-63.766;2023-11-21T03:07:51;26.80;36.70
59975;DHT22;62136;-35.664;-63.766;2023-11-21T03:10:18;26.80;36.70
59975;DHT22;62136;-35.664;-63.766;2023-11-21T03:12:45;26.80;36.70
59975;DHT22;62136;-35.664;-63.766;2023-11-21T03:15:12;26.80;36.70
59975;DHT22;62136;-35.664;-63.766;2023-11-21T03:17:40;26.70;36.60
59975;DHT22;62136;-35.664;-63.766;2023-11-21T03:20:07;26.70;37.10
59975;DHT22;62136;-35.664;-63.766;2023-11-21T03:22:37;26.70;36.60
59975;DHT22;62136;-35.664;-63.766;2023-11-21T03:25:05;26.70;36.70
59975;DHT22;62136;-35.664;-63.766;2023-11-21T03:27:32;26.70;36.80
59975;DHT22;62136;-35.664;-63.766;2023-11-21T03:29:59;26.60;36.80
59975;DHT22;62136;-35.664;-63.766;2023-11-21T03:32:27;26.60;36.80
59975;DHT22;62136;-35.664;-63.766;2023-11-21T03:34:56;26.60;36.70
59975;DHT22;62136;-35.664;-63.766;2023-11-21T03:37:24;26.60;36.80
59975;DHT22;62136;-35.664;-63.766;2023-11-21T03:39:51;26.50;36.80
59975;DHT22;62136;-35.664;-63.766;2023-11-21T03:42:18;26.50;36.80
59975;DHT22;62136;-35.664;-63.766;2023-11-21T03:44:45;26.50;36.80
59975;DHT22;62136;-35.664;-63.766;2023-11-21T03:47:12;26.50;36.80
59975;DHT22;62136;-35.664;-63.766;2023-11-21T03:49:39;26.50;36.80
59975;DHT22;62136;-35.664;-63.766;2023-11-21T03:52:06;26.50;36.90
59975;DHT22;62136;-35.664;-63.766;2023-11-21T03:54:34;26.50;36.90
59975;DHT22;62136;-35.664;-63.766;2023-11-21T03:57:01;26.50;36.90
59975;DHT22;62136;-35.664;-63.766;2023-11-21T03:59:28;26.50;36.90
59975;DHT22;62136;-35.664;-63.766;2023-11-21T04:01:57;26.40;36.90
59975;DHT22;62136;-35.664;-63.766;2023-11-21T04:04:24;26.40;36.90
59975;DHT22;62136;-35.664;-63.766;2023-11-21T04:06:52;26.40;36.90
59975;DHT22;62136;-35.664;-63.766;2023-11-21T04:09:20;26.40;37.00
59975;DHT22;62136;-35.664;-63.766;2023-11-21T04:11:47;26.40;37.00
59975;DHT22;62136;-35.664;-63.766;2023-11-21T04:14:14;26.40;37.00
59975;DHT22;62136;-35.664;-63.766;2023-11-21T04:16:42;26.40;37.00
59975;DHT22;62136;-35.664;-63.766;2023-11-21T04:19:09;26.40;36.90
59975;DHT22;62136;-35.664;-63.766;2023-11-21T04:21:37;26.30;37.00
59975;DHT22;62136;-35.664;-63.766;2023-11-21T04:24:04;26.40;37.00
59975;DHT22;62136;-35.664;-63.766;2023-11-21T04:26:32;26.30;36.90
59975;DHT22;62136;-35.664;-63.766;2023-11-21T04:28:59;26.30;37.00
59975;DHT22;62136;-35.664;-63.766;2023-11-21T04:31:26;26.30;37.00
59975;DHT22;62136;-35.664;-63.766;2023-11-21T04:33:53;26.20;37.00
59975;DHT22;62136;-35.664;-63.766;2023-11-21T04:36:20;26.30;37.00
59975;DHT22;62136;-35.664;-63.766;2023-11-21T04:38:47;26.20;36.90
59975;DHT22;62136;-35.664;-63.766;2023-11-21T04:41:14;26.20;36.90
59975;DHT22;62136;-35.664;-63.766;2023-11-21T04:43:41;26.20;36.90
59975;DHT22;62136;-35.664;-63.766;2023-11-21T04:46:09;26.20;37.00
59975;DHT22;62136;-35.664;-63.766;2023-11-21T04:48:36;26.20;37.00
59975;DHT22;62136;-35.664;-63.766;2023-11-21T04:51:03;26.20;36.90
59975;DHT22;62136;-35.664;-63.766;2023-11-21T04:53:31;26.20;37.00
59975;DHT22;62136;-35.664;-63.766;2023-11-21T04:55:58;26.10;36.80
59975;DHT22;62136;-35.664;-63.766;2023-11-21T04:58:25;26.10;36.90
59975;DHT22;62136;-35.664;-63.766;2023-11-21T05:00:52;26.10;37.00
59975;DHT22;62136;-35.664;-63.766;2023-11-21T05:03:19;26.10;37.00
59975;DHT22;62136;-35.664;-63.766;2023-11-21T05:05:46;26.10;36.90
59975;DHT22;62136;-35.664;-63.766;2023-11-21T05:08:14;26.10;36.90
59975;DHT22;62136;-35.664;-63.766;2023-11-21T05:10:41;26.00;36.90
59975;DHT22;62136;-35.664;-63.766;2023-11-21T05:13:08;26.00;36.90
59975;DHT22;62136;-35.664;-63.766;2023-11-21T05:15:37;26.00;37.00
59975;DHT22;62136;-35.664;-63.766;2023-11-21T05:18:05;26.00;37.00
59975;DHT22;62136;-35.664;-63.766;2023-11-21T05:20:32;26.00;37.00
59975;DHT22;62136;-35.664;-63.766;2023-11-21T05:22:59;26.00;37.00
59975;DHT22;62136;-35.664;-63.766;2023-11-21T05:25:26;26.00;36.90
59975;DHT22;62136;-35.664;-63.766;2023-11-21T05:27:53;25.90;37.00
59975;DHT22;62136;-35.664;-63.766;2023-11-21T05:30:27;25.90;36.90
59975;DHT22;62136;-35.664;-63.766;2023-11-21T05:32:54;26.00;36.90
59975;DHT22;62136;-35.664;-63.766;2023-11-21T05:35:21;25.90;36.90
59975;DHT22;62136;-35.664;-63.766;2023-11-21T05:37:48;25.90;36.90
59975;DHT22;62136;-35.664;-63.766;2023-11-21T05:40:15;25.90;37.00
59975;DHT22;62136;-35.664;-63.766;2023-11-21T05:42:43;25.90;37.00
59975;DHT22;62136;-35.664;-63.766;2023-11-21T05:45:10;25.90;36.90
59975;DHT22;62136;-35.664;-63.766;2023-11-21T05:47:43;25.90;37.00
59975;DHT22;62136;-35.664;-63.766;2023-11-21T05:50:12;25.80;36.80
59975;DHT22;62136;-35.664;-63.766;2023-11-21T05:52:41;25.80;36.80
59975;DHT22;62136;-35.664;-63.766;2023-11-21T05:55:09;25.80;36.90
59975;DHT22;62136;-35.664;-63.766;2023-11-21T05:57:37;25.80;36.90
59975;DHT22;62136;-35.664;-63.766;2023-11-21T06:02:41;25.70;36.80
59975;DHT22;62136;-35.664;-63.766;2023-11-21T06:05:09;25.70;36.80
59975;DHT22;62136;-35.664;-63.766;2023-11-21T06:07:37;25.70;36.80
59975;DHT22;62136;-35.664;-63.766;2023-11-21T06:10:10;25.70;36.80
59975;DHT22;62136;-35.664;-63.766;2023-11-21T06:12:39;25.70;36.70
59975;DHT22;62136;-35.664;-63.766;2023-11-21T06:15:10;25.70;36.80
59975;DHT22;62136;-35.664;-63.766;2023-11-21T06:17:41;25.70;36.80
59975;DHT22;62136;-35.664;-63.766;2023-11-21T06:20:10;25.70;36.80
59975;DHT22;62136;-35.664;-63.766;2023-11-21T06:22:43;25.70;36.80
59975;DHT22;62136;-35.664;-63.766;2023-11-21T06:25:12;25.70;36.80
59975;DHT22;62136;-35.664;-63.766;2023-11-21T06:27:47;25.60;36.70
59975;DHT22;62136;-35.664;-63.766;2023-11-21T06:30:15;25.70;36.80
59975;DHT22;62136;-35.664;-63.766;2023-11-21T06:32:43;25.60;36.80
59975;DHT22;62136;-35.664;-63.766;2023-11-21T06:35:13;25.60;36.80
59975;DHT22;62136;-35.664;-63.766;2023-11-21T06:37:41;25.60;36.70
59975;DHT22;62136;-35.664;-63.766;2023-11-21T06:40:14;25.60;36.70
59975;DHT22;62136;-35.664;-63.766;2023-11-21T06:42:44;25.60;36.80
59975;DHT22;62136;-35.664;-63.766;2023-11-21T06:45:13;25.50;36.70
59975;DHT22;62136;-35.664;-63.766;2023-11-21T06:47:41;25.50;36.70
59975;DHT22;62136;-35.664;-63.766;2023-11-21T06:50:08;25.50;36.60
59975;DHT22;62136;-35.664;-63.766;2023-11-21T06:52:35;25.50;36.70
59975;DHT22;62136;-35.664;-63.766;2023-11-21T06:55:02;25.50;36.80
59975;DHT22;62136;-35.664;-63.766;2023-11-21T06:57:30;25.50;36.80
59975;DHT22;62136;-35.664;-63.766;2023-11-21T06:59:57;25.50;36.70
59975;DHT22;62136;-35.664;-63.766;2023-11-21T07:02:25;25.50;36.70
59975;DHT22;62136;-35.664;-63.766;2023-11-21T07:04:52;25.40;36.70
59975;DHT22;62136;-35.664;-63.766;2023-11-21T07:07:19;25.40;36.80
59975;DHT22;62136;-35.664;-63.766;2023-11-21T07:09:46;25.40;36.80
59975;DHT22;62136;-35.664;-63.766;2023-11-21T07:12:15;25.40;36.80
59975;DHT22;62136;-35.664;-63.766;2023-11-21T07:14:42;25.40;36.80
59975;DHT22;62136;-35.664;-63.766;2023-11-21T07:17:11;25.40;36.80
59975;DHT22;62136;-35.664;-63.766;2023-11-21T07:19:39;25.40;36.80
59975;DHT22;62136;-35.664;-63.766;2023-11-21T07:22:07;25.30;36.60
59975;DHT22;62136;-35.664;-63.766;2023-11-21T07:24:35;25.40;36.80
59975;DHT22;62136;-35.664;-63.766;2023-11-21T07:27:03;25.40;36.70
59975;DHT22;62136;-35.664;-63.766;2023-11-21T07:29:30;25.40;36.70
59975;DHT22;62136;-35.664;-63.766;2023-11-21T07:31:57;25.30;36.80
59975;DHT22;62136;-35.664;-63.766;2023-11-21T07:34:24;25.30;36.80
59975;DHT22;62136;-35.664;-63.766;2023-11-21T07:36:51;25.30;36.70
59975;DHT22;62136;-35.664;-63.766;2023-11-21T07:39:18;25.40;36.60
59975;DHT22;62136;-35.664;-63.766;2023-11-21T07:41:45;25.30;36.60
59975;DHT22;62136;-35.664;-63.766;2023-11-21T07:44:16;25.30;36.70
59975;DHT22;62136;-35.664;-63.766;2023-11-21T07:46:43;25.30;36.50
59975;DHT22;62136;-35.664;-63.766;2023-11-21T07:49:11;25.30;36.60
59975;DHT22;62136;-35.664;-63.766;2023-11-21T07:51:38;25.30;36.50
59975;DHT22;62136;-35.664;-63.766;2023-11-21T07:54:05;25.30;36.60
59975;DHT22;62136;-35.664;-63.766;2023-11-21T07:56:32;25.20;36.30
59975;DHT22;62136;-35.664;-63.766;2023-11-21T07:58:59;25.20;36.40
59975;DHT22;62136;-35.664;-63.766;2023-11-21T08:01:25;25.20;36.30
59975;DHT22;62136;-35.664;-63.766;2023-11-21T08:03:54;25.10;36.20
59975;DHT22;62136;-35.664;-63.766;2023-11-21T08:06:25;25.10;36.30
59975;DHT22;62136;-35.664;-63.766;2023-11-21T08:08:52;25.10;36.30
59975;DHT22;62136;-35.664;-63.766;2023-11-21T08:11:19;25.00;36.20
59975;DHT22;62136;-35.664;-63.766;2023-11-21T08:13:47;25.00;36.30
59975;DHT22;62136;-35.664;-63.766;2023-11-21T08:16:15;25.10;36.40
59975;DHT22;62136;-35.664;-63.766;2023-11-21T08:18:43;25.00;36.30
59975;DHT22;62136;-35.664;-63.766;2023-11-21T08:21:12;25.10;36.40
59975;DHT22;62136;-35.664;-63.766;2023-11-21T08:23:39;25.00;36.30
59975;DHT22;62136;-35.664;-63.766;2023-11-21T08:26:06;25.00;36.40
59975;DHT22;62136;-35.664;-63.766;2023-11-21T08:28:33;25.00;36.30
59975;DHT22;62136;-35.664;-63.766;2023-11-21T08:31:01;25.00;36.30
59975;DHT22;62136;-35.664;-63.766;2023-11-21T08:33:28;25.00;36.30
59975;DHT22;62136;-35.664;-63.766;2023-11-21T08:35:55;25.00;36.30
59975;DHT22;62136;-35.664;-63.766;2023-11-21T08:38:22;25.00;36.30
59975;DHT22;62136;-35.664;-63.766;2023-11-21T08:40:49;25.00;36.10
59975;DHT22;62136;-35.664;-63.766;2023-11-21T08:43:16;24.90;36.10
59975;DHT22;62136;-35.664;-63.766;2023-11-21T08:45:46;24.90;36.10
59975;DHT22;62136;-35.664;-63.766;2023-11-21T08:48:13;24.90;36.10
59975;DHT22;62136;-35.664;-63.766;2023-11-21T08:50:40;24.90;36.20
59975;DHT22;62136;-35.664;-63.766;2023-11-21T08:53:07;24.90;36.20
59975;DHT22;62136;-35.664;-63.766;2023-11-21T08:55:34;24.90;36.20
59975;DHT22;62136;-35.664;-63.766;2023-11-21T08:58:03;24.90;36.00
59975;DHT22;62136;-35.664;-63.766;2023-11-21T09:00:32;24.80;36.20
59975;DHT22;62136;-35.664;-63.766;2023-11-21T09:03:01;24.80;36.20
59975;DHT22;62136;-35.664;-63.766;2023-11-21T09:05:29;24.90;36.20
59975;DHT22;62136;-35.664;-63.766;2023-11-21T09:07:56;24.90;36.10
59975;DHT22;62136;-35.664;-63.766;2023-11-21T09:10:23;24.80;36.30
59975;DHT22;62136;-35.664;-63.766;2023-11-21T09:12:51;24.80;36.10
59975;DHT22;62136;-35.664;-63.766;2023-11-21T09:15:18;24.80;36.10
59975;DHT22;62136;-35.664;-63.766;2023-11-21T09:20:12;24.80;36.00
59975;DHT22;62136;-35.664;-63.766;2023-11-21T09:22:41;24.80;36.40
59975;DHT22;62136;-35.664;-63.766;2023-11-21T09:25:08;24.80;36.10
59975;DHT22;62136;-35.664;-63.766;2023-11-21T09:27:35;24.80;36.00
59975;DHT22;62136;-35.664;-63.766;2023-11-21T09:30:06;24.80;36.00
59975;DHT22;62136;-35.664;-63.766;2023-11-21T09:32:37;24.70;36.00
59975;DHT22;62136;-35.664;-63.766;2023-11-21T09:35:05;24.70;35.80
59975;DHT22;62136;-35.664;-63.766;2023-11-21T09:37:34;24.80;35.90
59975;DHT22;62136;-35.664;-63.766;2023-11-21T09:40:05;24.70;35.90
59975;DHT22;62136;-35.664;-63.766;2023-11-21T09:42:56;24.70;35.80
59975;DHT22;62136;-35.664;-63.766;2023-11-21T09:45:28;24.70;35.80
59975;DHT22;62136;-35.664;-63.766;2023-11-21T09:47:56;24.70;35.80
59975;DHT22;62136;-35.664;-63.766;2023-11-21T09:50:24;24.70;35.90
59975;DHT22;62136;-35.664;-63.766;2023-11-21T09:53:09;24.70;35.80
59975;DHT22;62136;-35.664;-63.766;2023-11-21T09:55:43;24.70;36.20
59975;DHT22;62136;-35.664;-63.766;2023-11-21T09:58:10;24.70;35.80
59975;DHT22;62136;-35.664;-63.766;2023-11-21T10:00:45;24.70;35.80
59975;DHT22;62136;-35.664;-63.766;2023-11-21T10:03:13;24.70;35.80
59975;DHT22;62136;-35.664;-63.766;2023-11-21T10:05:44;24.70;35.60
59975;DHT22;62136;-35.664;-63.766;2023-11-21T10:08:15;24.70;35.60
59975;DHT22;62136;-35.664;-63.766;2023-11-21T10:10:46;24.70;35.50
59975;DHT22;62136;-35.664;-63.766;2023-11-21T10:13:16;24.70;35.50
59975;DHT22;62136;-35.664;-63.766;2023-11-21T10:15:50;24.70;35.40
59975;DHT22;62136;-35.664;-63.766;2023-11-21T10:18:17;24.70;35.40
59975;DHT22;62136;-35.664;-63.766;2023-11-21T10:20:45;24.60;35.80
59975;DHT22;62136;-35.664;-63.766;2023-11-21T10:23:22;24.70;35.40
59975;DHT22;62136;-35.664;-63.766;2023-11-21T10:25:50;24.60;35.40
59975;DHT22;62136;-35.664;-63.766;2023-11-21T10:28:18;24.70;35.40
59975;DHT22;62136;-35.664;-63.766;2023-11-21T10:30:45;24.60;35.30
59975;DHT22;62136;-35.664;-63.766;2023-11-21T10:33:12;24.60;35.40
59975;DHT22;62136;-35.664;-63.766;2023-11-21T10:35:43;24.60;35.30
59975;DHT22;62136;-35.664;-63.766;2023-11-21T10:38:22;24.60;35.30
59975;DHT22;62136;-35.664;-63.766;2023-11-21T10:40:51;24.60;35.30
59975;DHT22;62136;-35.664;-63.766;2023-11-21T10:43:18;24.60;35.40
59975;DHT22;62136;-35.664;-63.766;2023-11-21T10:45:45;24.60;35.40
59975;DHT22;62136;-35.664;-63.766;2023-11-21T10:48:15;24.60;35.40
59975;DHT22;62136;-35.664;-63.766;2023-11-21T10:50:46;24.60;35.40
59975;DHT22;62136;-35.664;-63.766;2023-11-21T10:53:13;24.60;35.40
59975;DHT22;62136;-35.664;-63.766;2023-11-21T10:55:40;24.60;35.30
59975;DHT22;62136;-35.664;-63.766;2023-11-21T10:58:11;24.60;35.20
59975;DHT22;62136;-35.664;-63.766;2023-11-21T11:00:42;24.60;34.70
59975;DHT22;62136;-35.664;-63.766;2023-11-21T11:03:13;24.50;34.50
59975;DHT22;62136;-35.664;-63.766;2023-11-21T11:05:44;24.40;32.10
59975;DHT22;62136;-35.664;-63.766;2023-11-21T11:08:20;24.50;33.70
59975;DHT22;62136;-35.664;-63.766;2023-11-21T11:10:53;24.30;33.40
59975;DHT22;62136;-35.664;-63.766;2023-11-21T11:13:20;24.40;33.00
59975;DHT22;62136;-35.664;-63.766;2023-11-21T11:15:58;24.50;32.80
59975;DHT22;62136;-35.664;-63.766;2023-11-21T11:21:07;24.30;31.40
59975;DHT22;62136;-35.664;-63.766;2023-11-21T11:24:12;24.40;31.70
59975;DHT22;62136;-35.664;-63.766;2023-11-21T11:29:59;24.20;30.80
59975;DHT22;62136;-35.664;-63.766;2023-11-21T11:37:54;24.20;30.40
59975;DHT22;62136;-35.664;-63.766;2023-11-21T11:40:22;24.20;30.50
59975;DHT22;62136;-35.664;-63.766;2023-11-21T11:43:02;24.20;29.60
59975;DHT22;62136;-35.664;-63.766;2023-11-21T11:45:34;24.20;30.60
59975;DHT22;62136;-35.664;-63.766;2023-11-21T11:48:05;24.20;30.70
59975;DHT22;62136;-35.664;-63.766;2023-11-21T11:50:32;24.20;30.00
59975;DHT22;62136;-35.664;-63.766;2023-11-21T11:53:15;24.30;30.10
59975;DHT22;62136;-35.664;-63.766;2023-11-21T11:55:44;24.30;30.40
59975;DHT22;62136;-35.664;-63.766;2023-11-21T11:58:14;24.30;30.00
59975;DHT22;62136;-35.664;-63.766;2023-11-21T12:00:42;24.30;30.00
59975;DHT22;62136;-35.664;-63.766;2023-11-21T12:03:11;24.30;30.10
59975;DHT22;62136;-35.664;-63.766;2023-11-21T12:05:42;24.30;30.00
59975;DHT22;62136;-35.664;-63.766;2023-11-21T12:08:11;24.40;30.30
59975;DHT22;62136;-35.664;-63.766;2023-11-21T12:10:42;24.40;30.40
59975;DHT22;62136;-35.664;-63.766;2023-11-21T12:13:12;24.40;30.40
59975;DHT22;62136;-35.664;-63.766;2023-11-21T12:15:40;24.40;30.30
59975;DHT22;62136;-35.664;-63.766;2023-11-21T12:18:08;24.50;30.30
59975;DHT22;62136;-35.664;-63.766;2023-11-21T12:20:40;24.50;30.50
59975;DHT22;62136;-35.664;-63.766;2023-11-21T12:23:09;24.50;30.40
59975;DHT22;62136;-35.664;-63.766;2023-11-21T12:25:38;24.50;30.40
59975;DHT22;62136;-35.664;-63.766;2023-11-21T12:28:09;24.50;30.30
59975;DHT22;62136;-35.664;-63.766;2023-11-21T12:30:40;24.60;30.60
59975;DHT22;62136;-35.664;-63.766;2023-11-21T12:33:10;24.60;30.80
59975;DHT22;62136;-35.664;-63.766;2023-11-21T12:35:42;24.60;31.20
59975;DHT22;62136;-35.664;-63.766;2023-11-21T12:38:18;24.60;31.50
59975;DHT22;62136;-35.664;-63.766;2023-11-21T12:40:46;24.60;31.90
59975;DHT22;62136;-35.664;-63.766;2023-11-21T12:43:19;24.70;31.70
59975;DHT22;62136;-35.664;-63.766;2023-11-21T12:45:46;24.70;31.60
59975;DHT22;62136;-35.664;-63.766;2023-11-21T12:48:21;24.70;31.50
59975;DHT22;62136;-35.664;-63.766;2023-11-21T12:50:50;24.70;31.60
59975;DHT22;62136;-35.664;-63.766;2023-11-21T12:53:23;24.70;31.50
59975;DHT22;62136;-35.664;-63.766;2023-11-21T12:56:10;24.80;31.90
59975;DHT22;62136;-35.664;-63.766;2023-11-21T12:58:45;24.80;32.10
59975;DHT22;62136;-35.664;-63.766;2023-11-21T13:01:15;24.90;32.20
59975;DHT22;62136;-35.664;-63.766;2023-11-21T13:03:53;24.90;31.90
59975;DHT22;62136;-35.664;-63.766;2023-11-21T13:06:21;25.00;32.00
59975;DHT22;62136;-35.664;-63.766;2023-11-21T13:08:51;25.00;32.40
59975;DHT22;62136;-35.664;-63.766;2023-11-21T13:11:21;25.00;32.30
59975;DHT22;62136;-35.664;-63.766;2023-11-21T13:13:51;25.00;32.70
59975;DHT22;62136;-35.664;-63.766;2023-11-21T13:16:24;25.00;32.20
59975;DHT22;62136;-35.664;-63.766;2023-11-21T13:18:52;24.80;31.20
59975;DHT22;62136;-35.664;-63.766;2023-11-21T13:21:27;24.60;31.30
59975;DHT22;62136;-35.664;-63.766;2023-11-21T13:23:59;24.40;31.50
59975;DHT22;62136;-35.664;-63.766;2023-11-21T13:26:26;24.30;31.60
59975;DHT22;62136;-35.664;-63.766;2023-11-21T13:28:55;24.10;31.80
59975;DHT22;62136;-35.664;-63.766;2023-11-21T13:31:28;23.90;32.00
59975;DHT22;62136;-35.664;-63.766;2023-11-21T13:33:58;23.80;32.10
59975;DHT22;62136;-35.664;-63.766;2023-11-21T13:36:31;23.70;32.20
59975;DHT22;62136;-35.664;-63.766;2023-11-21T13:39:01;23.70;32.40
59975;DHT22;62136;-35.664;-63.766;2023-11-21T13:41:34;23.60;32.50
59975;DHT22;62136;-35.664;-63.766;2023-11-21T13:44:05;23.50;32.60
59975;DHT22;62136;-35.664;-63.766;2023-11-21T13:46:50;23.50;32.80
59975;DHT22;62136;-35.664;-63.766;2023-11-21T13:49:18;23.40;32.90
59975;DHT22;62136;-35.664;-63.766;2023-11-21T13:51:47;23.40;33.40
59975;DHT22;62136;-35.664;-63.766;2023-11-21T13:54:20;23.30;34.70
59975;DHT22;62136;-35.664;-63.766;2023-11-21T13:56:50;23.10;34.30
59975;DHT22;62136;-35.664;-63.766;2023-11-21T13:59:21;23.10;34.30
59975;DHT22;62136;-35.664;-63.766;2023-11-21T14:01:53;23.20;34.20
59975;DHT22;62136;-35.664;-63.766;2023-11-21T14:04:25;23.20;34.00
59975;DHT22;62136;-35.664;-63.766;2023-11-21T14:07:12;23.20;33.80
59975;DHT22;62136;-35.664;-63.766;2023-11-21T14:10:08;23.30;33.60
59975;DHT22;62136;-35.664;-63.766;2023-11-21T14:12:50;23.30;33.50
59975;DHT22;62136;-35.664;-63.766;2023-11-21T14:15:21;23.40;33.40
59975;DHT22;62136;-35.664;-63.766;2023-11-21T14:17:50;23.40;35.00
59975;DHT22;62136;-35.664;-63.766;2023-11-21T14:20:27;23.40;35.70
59975;DHT22;62136;-35.664;-63.766;2023-11-21T14:22:56;23.50;34.90
59975;DHT22;62136;-35.664;-63.766;2023-11-21T14:25:26;23.60;35.00
59975;DHT22;62136;-35.664;-63.766;2023-11-21T14:27:53;23.60;34.90
59975;DHT22;62136;-35.664;-63.766;2023-11-21T14:30:20;23.70;35.10
59975;DHT22;62136;-35.664;-63.766;2023-11-21T14:32:49;23.70;34.40
59975;DHT22;62136;-35.664;-63.766;2023-11-21T14:35:36;23.70;34.90
59975;DHT22;62136;-35.664;-63.766;2023-11-21T14:38:06;23.70;35.30
59975;DHT22;62136;-35.664;-63.766;2023-11-21T14:40:39;23.70;35.50
59975;DHT22;62136;-35.664;-63.766;2023-11-21T14:43:07;23.70;35.60
59975;DHT22;62136;-35.664;-63.766;2023-11-21T14:45:34;23.70;36.00
59975;DHT22;62136;-35.664;-63.766;2023-11-21T14:48:02;23.60;37.20
59975;DHT22;62136;-35.664;-63.766;2023-11-21T14:50:42;23.60;36.50
59975;DHT22;62136;-35.664;-63.766;2023-11-21T14:53:35;23.60;36.50
59975;DHT22;62136;-35.664;-63.766;2023-11-21T14:56:21;23.70;36.40
59975;DHT22;62136;-35.664;-63.766;2023-11-21T14:59:00;23.70;36.40
59975;DHT22;62136;-35.664;-63.766;2023-11-21T15:01:42;23.70;36.10
59975;DHT22;62136;-35.664;-63.766;2023-11-21T15:04:24;23.80;36.50
59975;DHT22;62136;-35.664;-63.766;2023-11-21T15:07:10;23.80;36.70
59975;DHT22;62136;-35.664;-63.766;2023-11-21T15:09:38;23.80;36.70
59975;DHT22;62136;-35.664;-63.766;2023-11-21T15:12:05;23.80;36.40
59975;DHT22;62136;-35.664;-63.766;2023-11-21T15:14:49;23.90;36.80
59975;DHT22;62136;-35.664;-63.766;2023-11-21T15:17:20;24.00;37.80